Irondequoit, New York
Current Conditions -  °F | °C
As of 10:54 PM on Monday 20 Oct 2014 (Local Time) from KROC Reporting Station
Light Rain Light Rain  
Wind Chill: 50°   Ceiling: 5000
Heat Index: 50°   Visibility: 9mi
Dew Point: 47°   Wind: 5mph
Humidity: 89%   Direction: 190°S
Pressure: 29.85"   Gusts: NA
Location:  43.21°N, 77.58°W
Report Text: KROC 210254Z 19004KT 9SM -RA SCT040 BKN050 OVC060 10/08 A2985 RMK AO2 SLP111 P0006 60016 T01000083 50001
Loading
Personal Weather Stations






























Interactive Weather Map
Tropical Storm Tracking
New forecast layout! Learn more

10-Day Weather Forecast

Advertisements
Track Severe Weather on mobile